sensor_id;sensor_type;location;lat;lon;timestamp;pressure;altitude;pressure_sealevel;temperature;humidity
56414;BME280;42318;48.452;19.526;2023-09-19T00:02:36;97889.09;;;23.33;58.74
56414;BME280;42318;48.452;19.526;2023-09-19T00:05:38;97905.16;;;23.39;58.58
56414;BME280;42318;48.452;19.526;2023-09-19T00:08:39;97893.69;;;23.37;58.76
56414;BME280;42318;48.452;19.526;2023-09-19T00:11:39;97893.41;;;23.39;58.74
56414;BME280;42318;48.452;19.526;2023-09-19T00:14:41;97891.47;;;23.39;58.59
56414;BME280;42318;48.452;19.526;2023-09-19T00:17:42;97887.13;;;23.38;58.84
56414;BME280;42318;48.452;19.526;2023-09-19T00:20:44;97889.09;;;23.33;58.56
56414;BME280;42318;48.452;19.526;2023-09-19T00:23:47;97894.28;;;23.34;58.67
56414;BME280;42318;48.452;19.526;2023-09-19T00:26:48;97886.59;;;23.36;58.74
56414;BME280;42318;48.452;19.526;2023-09-19T00:29:49;97886.59;;;23.36;58.79
56414;BME280;42318;48.452;19.526;2023-09-19T00:32:50;97884.69;;;23.37;58.53
56414;BME280;42318;48.452;19.526;2023-09-19T00:35:56;97879.50;;;23.35;58.51
56414;BME280;42318;48.452;19.526;2023-09-19T00:38:57;97875.66;;;23.36;58.54
56414;BME280;42318;48.452;19.526;2023-09-19T00:41:58;97871.66;;;23.29;58.85
56414;BME280;42318;48.452;19.526;2023-09-19T00:45:09;97881.13;;;23.36;58.82
56414;BME280;42318;48.452;19.526;2023-09-19T00:48:11;97871.06;;;23.32;58.87
56414;BME280;42318;48.452;19.526;2023-09-19T00:51:13;97875.66;;;23.36;58.78
56414;BME280;42318;48.452;19.526;2023-09-19T00:54:15;97872.72;;;23.33;58.99
56414;BME280;42318;48.452;19.526;2023-09-19T00:57:18;97870.19;;;23.36;58.86
56414;BME280;42318;48.452;19.526;2023-09-19T01:00:20;97866.13;;;23.34;59.04
56414;BME280;42318;48.452;19.526;2023-09-19T01:03:22;97865.03;;;23.35;58.91
56414;BME280;42318;48.452;19.526;2023-09-19T01:06:23;97863.91;;;23.36;58.64
56414;BME280;42318;48.452;19.526;2023-09-19T01:09:24;97859.03;;;23.33;58.95
56414;BME280;42318;48.452;19.526;2023-09-19T01:12:35;97864.50;;;23.33;58.87
56414;BME280;42318;48.452;19.526;2023-09-19T01:29:44;97848.69;;;23.30;58.67
56414;BME280;42318;48.452;19.526;2023-09-19T01:32:46;97825.50;;;23.27;58.75
56414;BME280;42318;48.452;19.526;2023-09-19T01:35:47;97829.84;;;23.28;58.61
56414;BME280;42318;48.452;19.526;2023-09-19T01:38:47;97834.50;;;23.28;58.93
56414;BME280;42318;48.452;19.526;2023-09-19T01:42:01;97838.06;;;23.28;59.02
56414;BME280;42318;48.452;19.526;2023-09-19T01:45:31;97842.41;;;23.29;58.68
56414;BME280;42318;48.452;19.526;2023-09-19T01:48:41;97841.31;;;23.30;58.83
56414;BME280;42318;48.452;19.526;2023-09-19T01:51:56;97826.59;;;23.26;59.06
56414;BME280;42318;48.452;19.526;2023-09-19T01:55:06;97836.94;;;23.29;59.19
56414;BME280;42318;48.452;19.526;2023-09-19T01:58:17;97834.22;;;23.29;58.96
56414;BME280;42318;48.452;19.526;2023-09-19T02:01:22;97836.94;;;23.29;58.48
56414;BME280;42318;48.452;19.526;2023-09-19T02:04:24;97841.59;;;23.29;59.17
56414;BME280;42318;48.452;19.526;2023-09-19T02:07:25;97833.41;;;23.29;58.96
56414;BME280;42318;48.452;19.526;2023-09-19T02:10:27;97829.84;;;23.28;58.74
56414;BME280;42318;48.452;19.526;2023-09-19T02:13:28;97834.22;;;23.29;58.85
56414;BME280;42318;48.452;19.526;2023-09-19T02:16:29;97821.44;;;23.25;59.17
56414;BME280;42318;48.452;19.526;2023-09-19T02:19:29;97822.75;;;23.27;58.88
56414;BME280;42318;48.452;19.526;2023-09-19T02:22:32;97820.03;;;23.27;58.83
56414;BME280;42318;48.452;19.526;2023-09-19T02:25:33;97813.75;;;23.27;58.90
56414;BME280;42318;48.452;19.526;2023-09-19T02:28:34;97805.03;;;23.25;58.98
56414;BME280;42318;48.452;19.526;2023-09-19T02:31:36;97800.38;;;23.25;59.22
56414;BME280;42318;48.452;19.526;2023-09-19T02:34:36;97800.06;;;23.27;59.03
56414;BME280;42318;48.452;19.526;2023-09-19T02:37:39;97807.47;;;23.26;59.14
56414;BME280;42318;48.452;19.526;2023-09-19T02:40:40;97806.66;;;23.26;59.00
56414;BME280;42318;48.452;19.526;2023-09-19T02:43:41;97793.28;;;23.24;58.88
56414;BME280;42318;48.452;19.526;2023-09-19T02:46:43;97814.84;;;23.26;58.92
56414;BME280;42318;48.452;19.526;2023-09-19T02:49:43;97804.72;;;23.26;58.86
56414;BME280;42318;48.452;19.526;2023-09-19T02:52:45;97807.47;;;23.26;59.18
56414;BME280;42318;48.452;19.526;2023-09-19T02:55:49;97795.72;;;23.26;58.99
56414;BME280;42318;48.452;19.526;2023-09-19T02:58:52;97802.28;;;23.25;58.80
56414;BME280;42318;48.452;19.526;2023-09-19T03:01:53;97785.66;;;23.21;59.22
56414;BME280;42318;48.452;19.526;2023-09-19T03:04:54;97790.53;;;23.24;59.25
56414;BME280;42318;48.452;19.526;2023-09-19T03:07:57;97780.19;;;23.21;59.03
56414;BME280;42318;48.452;19.526;2023-09-19T03:11:00;97788.91;;;23.23;59.00
56414;BME280;42318;48.452;19.526;2023-09-19T03:14:01;97781.84;;;23.22;59.13
56414;BME280;42318;48.452;19.526;2023-09-19T03:17:02;97770.97;;;23.17;58.86
56414;BME280;42318;48.452;19.526;2023-09-19T03:20:05;97779.97;;;23.17;59.01
56414;BME280;42318;48.452;19.526;2023-09-19T03:23:09;97778.28;;;23.22;58.94
56414;BME280;42318;48.452;19.526;2023-09-19T03:26:13;97781.59;;;23.18;58.85
56414;BME280;42318;48.452;19.526;2023-09-19T03:29:17;97788.41;;;23.21;58.85
56414;BME280;42318;48.452;19.526;2023-09-19T03:32:17;97787.88;;;23.19;58.91
56414;BME280;42318;48.452;19.526;2023-09-19T03:35:19;97781.59;;;23.18;58.77
56414;BME280;42318;48.452;19.526;2023-09-19T03:38:20;97775.31;;;23.18;58.76
56414;BME280;42318;48.452;19.526;2023-09-19T03:41:22;97782.41;;;23.19;59.10
56414;BME280;42318;48.452;19.526;2023-09-19T03:44:22;97789.81;;;23.18;59.10
56414;BME280;42318;48.452;19.526;2023-09-19T03:47:23;97767.41;;;23.16;59.06
56414;BME280;42318;48.452;19.526;2023-09-19T03:50:23;97777.75;;;23.19;58.78
56414;BME280;42318;48.452;19.526;2023-09-19T03:53:24;97774.22;;;23.19;58.76
56414;BME280;42318;48.452;19.526;2023-09-19T03:56:25;97759.53;;;23.15;58.79
56414;BME280;42318;48.452;19.526;2023-09-19T03:59:25;97767.66;;;23.20;59.11
56414;BME280;42318;48.452;19.526;2023-09-19T04:02:26;97770.38;;;23.20;59.05
56414;BME280;42318;48.452;19.526;2023-09-19T04:05:33;97771.50;;;23.19;58.97
56414;BME280;42318;48.452;19.526;2023-09-19T04:08:34;97763.28;;;23.19;58.78
56414;BME280;42318;48.452;19.526;2023-09-19T04:11:34;97775.03;;;23.19;59.03
56414;BME280;42318;48.452;19.526;2023-09-19T04:14:35;97772.31;;;23.19;58.81
56414;BME280;42318;48.452;19.526;2023-09-19T04:17:35;97775.63;;;23.16;59.36
56414;BME280;42318;48.452;19.526;2023-09-19T04:20:36;97761.97;;;23.16;59.00
56414;BME280;42318;48.452;19.526;2023-09-19T04:23:37;97768.53;;;23.15;58.88
56414;BME280;42318;48.452;19.526;2023-09-19T04:26:38;97773.19;;;23.15;58.84
56414;BME280;42318;48.452;19.526;2023-09-19T04:29:38;97778.34;;;23.16;58.99
56414;BME280;42318;48.452;19.526;2023-09-19T04:32:40;97778.66;;;23.15;58.99
56414;BME280;42318;48.452;19.526;2023-09-19T04:35:41;97779.47;;;23.15;58.66
56414;BME280;42318;48.452;19.526;2023-09-19T04:38:42;97774.00;;;23.15;58.52
56414;BME280;42318;48.452;19.526;2023-09-19T04:41:43;97768.31;;;23.12;58.81
56414;BME280;42318;48.452;19.526;2023-09-19T04:44:46;97764.97;;;23.15;59.12
56414;BME280;42318;48.452;19.526;2023-09-19T04:47:50;97765.28;;;23.13;59.14
56414;BME280;42318;48.452;19.526;2023-09-19T04:50:51;97770.44;;;23.15;58.75
56414;BME280;42318;48.452;19.526;2023-09-19T04:53:51;97775.09;;;23.14;59.14
56414;BME280;42318;48.452;19.526;2023-09-19T04:56:52;97771.56;;;23.14;58.76
56414;BME280;42318;48.452;19.526;2023-09-19T04:59:52;97774.00;;;23.15;59.05
56414;BME280;42318;48.452;19.526;2023-09-19T05:02:55;97773.19;;;23.15;58.81
56414;BME280;42318;48.452;19.526;2023-09-19T05:05:59;97777.84;;;23.14;58.93
56414;BME280;42318;48.452;19.526;2023-09-19T05:08:59;97774.66;;;23.07;59.22
56414;BME280;42318;48.452;19.526;2023-09-19T05:12:00;97792.59;;;23.13;58.89
56414;BME280;42318;48.452;19.526;2023-09-19T05:15:02;97787.94;;;23.14;59.04
56414;BME280;42318;48.452;19.526;2023-09-19T05:18:03;97797.25;;;23.13;59.19
56414;BME280;42318;48.452;19.526;2023-09-19T05:21:04;97795.91;;;23.10;59.09
56414;BME280;42318;48.452;19.526;2023-09-19T05:24:05;97794.00;;;23.11;59.13
56414;BME280;42318;48.452;19.526;2023-09-19T05:27:09;97794.00;;;23.11;58.90
56414;BME280;42318;48.452;19.526;2023-09-19T05:30:10;97784.19;;;23.10;58.88
56414;BME280;42318;48.452;19.526;2023-09-19T05:33:11;97794.00;;;23.11;58.97
56414;BME280;42318;48.452;19.526;2023-09-19T05:36:12;97795.13;;;23.10;59.19
56414;BME280;42318;48.452;19.526;2023-09-19T05:39:12;97796.22;;;23.09;58.85
56414;BME280;42318;48.452;19.526;2023-09-19T05:42:13;97791.03;;;23.07;58.88
56414;BME280;42318;48.452;19.526;2023-09-19T05:45:14;97794.28;;;23.09;58.79
56414;BME280;42318;48.452;19.526;2023-09-19T05:48:19;97791.84;;;23.08;59.08
56414;BME280;42318;48.452;19.526;2023-09-19T05:51:21;97790.22;;;23.07;58.85
56414;BME280;42318;48.452;19.526;2023-09-19T05:54:22;97794.59;;;23.08;59.29
56414;BME280;42318;48.452;19.526;2023-09-19T05:57:23;97792.97;;;23.07;58.94
56414;BME280;42318;48.452;19.526;2023-09-19T06:00:25;97789.13;;;23.08;59.05
56414;BME280;42318;48.452;19.526;2023-09-19T06:03:27;97792.97;;;23.07;59.28
56414;BME280;42318;48.452;19.526;2023-09-19T06:06:29;97787.22;;;23.08;59.21
56414;BME280;42318;48.452;19.526;2023-09-19T06:09:30;97797.03;;;23.09;58.84
56414;BME280;42318;48.452;19.526;2023-09-19T06:12:32;97801.69;;;23.09;59.06
56414;BME280;42318;48.452;19.526;2023-09-19T06:15:37;97795.69;;;23.07;58.87
56414;BME280;42318;48.452;19.526;2023-09-19T06:18:38;97791.84;;;23.08;59.05
56414;BME280;42318;48.452;19.526;2023-09-19T06:21:39;97795.19;;;23.05;58.99
56414;BME280;42318;48.452;19.526;2023-09-19T06:24:39;97809.94;;;23.04;59.31
56414;BME280;42318;48.452;19.526;2023-09-19T06:27:41;97804.47;;;23.04;59.02
56414;BME280;42318;48.452;19.526;2023-09-19T06:30:42;97806.09;;;23.05;59.07
56414;BME280;42318;48.452;19.526;2023-09-19T06:33:44;97805.81;;;23.06;58.93
56414;BME280;42318;48.452;19.526;2023-09-19T06:36:45;97807.72;;;23.06;59.30
56414;BME280;42318;48.452;19.526;2023-09-19T06:39:46;97805.81;;;23.06;58.92
56414;BME280;42318;48.452;19.526;2023-09-19T06:42:51;97806.63;;;23.07;58.93
56414;BME280;42318;48.452;19.526;2023-09-19T06:45:53;97803.97;;;23.02;58.83
56414;BME280;42318;48.452;19.526;2023-09-19T06:48:54;97809.94;;;23.04;58.80
56414;BME280;42318;48.452;19.526;2023-09-19T06:51:55;97816.75;;;23.06;58.91
56414;BME280;42318;48.452;19.526;2023-09-19T06:54:57;97809.94;;;23.04;59.18
56414;BME280;42318;48.452;19.526;2023-09-19T06:57:58;97815.41;;;23.04;58.89
56414;BME280;42318;48.452;19.526;2023-09-19T07:00:59;97828.25;;;23.03;58.96
56414;BME280;42318;48.452;19.526;2023-09-19T07:03:59;97821.19;;;22.97;59.35
56414;BME280;42318;48.452;19.526;2023-09-19T07:07:00;97834.00;;;23.02;59.04
56414;BME280;42318;48.452;19.526;2023-09-19T07:10:02;97843.03;;;23.02;59.39
56414;BME280;42318;48.452;19.526;2023-09-19T07:13:07;97850.41;;;23.02;59.13
56414;BME280;42318;48.452;19.526;2023-09-19T07:16:11;97837.03;;;23.00;59.54
56414;BME280;42318;48.452;19.526;2023-09-19T07:19:27;97843.53;;;23.04;59.43
56414;BME280;42318;48.452;19.526;2023-09-19T07:22:31;97832.63;;;23.04;59.49
56414;BME280;42318;48.452;19.526;2023-09-19T07:25:32;97833.19;;;23.01;59.81
56414;BME280;42318;48.452;19.526;2023-09-19T07:28:35;97835.41;;;22.99;59.61
56414;BME280;42318;48.452;19.526;2023-09-19T07:31:36;97841.69;;;23.00;59.52
56414;BME280;42318;48.452;19.526;2023-09-19T07:34:37;97846.84;;;23.01;59.42
56414;BME280;42318;48.452;19.526;2023-09-19T07:37:40;97840.06;;;22.99;59.48
56414;BME280;42318;48.452;19.526;2023-09-19T07:40:41;97844.13;;;23.01;59.56
56414;BME280;42318;48.452;19.526;2023-09-19T07:43:42;97844.41;;;23.00;59.71
56414;BME280;42318;48.452;19.526;2023-09-19T07:46:43;97837.84;;;23.01;59.41
56414;BME280;42318;48.452;19.526;2023-09-19T07:49:47;97845.53;;;22.99;59.78
56414;BME280;42318;48.452;19.526;2023-09-19T07:52:49;97855.88;;;23.02;59.68
56414;BME280;42318;48.452;19.526;2023-09-19T07:56:02;97860.00;;;22.99;59.85
56414;BME280;42318;48.452;19.526;2023-09-19T07:59:04;97866.28;;;23.00;59.70
56414;BME280;42318;48.452;19.526;2023-09-19T08:02:05;97851.53;;;22.96;59.62
56414;BME280;42318;48.452;19.526;2023-09-19T08:05:08;97858.88;;;23.00;59.78
56414;BME280;42318;48.452;19.526;2023-09-19T08:08:10;97857.53;;;22.98;59.73
56414;BME280;42318;48.452;19.526;2023-09-19T08:11:12;97854.53;;;22.99;59.70
56414;BME280;42318;48.452;19.526;2023-09-19T08:14:15;97863.00;;;22.98;60.12
56414;BME280;42318;48.452;19.526;2023-09-19T08:17:16;97860.81;;;23.00;59.68
56414;BME280;42318;48.452;19.526;2023-09-19T08:20:17;97861.63;;;23.00;60.10
56414;BME280;42318;48.452;19.526;2023-09-19T08:23:19;97862.16;;;23.02;59.43
56414;BME280;42318;48.452;19.526;2023-09-19T08:26:21;97870.34;;;23.02;60.07
56414;BME280;42318;48.452;19.526;2023-09-19T08:29:23;97873.06;;;23.02;60.31
56414;BME280;42318;48.452;19.526;2023-09-19T08:32:28;97874.41;;;23.05;60.36
56414;BME280;42318;48.452;19.526;2023-09-19T08:35:29;97867.03;;;23.05;60.27
56414;BME280;42318;48.452;19.526;2023-09-19T08:38:34;97873.06;;;23.02;60.73
56414;BME280;42318;48.452;19.526;2023-09-19T08:41:36;97868.66;;;23.06;60.53
56414;BME280;42318;48.452;19.526;2023-09-19T08:44:37;97875.22;;;23.05;60.46
56414;BME280;42318;48.452;19.526;2023-09-19T08:47:45;97880.41;;;23.07;61.16
56414;BME280;42318;48.452;19.526;2023-09-19T08:50:52;97875.75;;;23.07;60.70
56414;BME280;42318;48.452;19.526;2023-09-19T08:54:03;97872.72;;;23.09;60.97
56414;BME280;42318;48.452;19.526;2023-09-19T08:57:07;97867.25;;;23.09;60.83
56414;BME280;42318;48.452;19.526;2023-09-19T09:00:11;97855.53;;;23.08;60.87
56414;BME280;42318;48.452;19.526;2023-09-19T09:03:16;97868.59;;;23.11;61.19
56414;BME280;42318;48.452;19.526;2023-09-19T09:06:21;97860.69;;;23.10;61.43
56414;BME280;42318;48.452;19.526;2023-09-19T09:09:22;97865.06;;;23.11;61.46
56414;BME280;42318;48.452;19.526;2023-09-19T09:12:23;97866.38;;;23.13;61.73
56414;BME280;42318;48.452;19.526;2023-09-19T09:15:24;97862.31;;;23.11;61.42
56414;BME280;42318;48.452;19.526;2023-09-19T09:18:25;97867.50;;;23.12;61.91
56414;BME280;42318;48.452;19.526;2023-09-19T09:21:26;97862.84;;;23.13;62.02
56414;BME280;42318;48.452;19.526;2023-09-19T09:24:31;97865.56;;;23.13;61.67
56414;BME280;42318;48.452;19.526;2023-09-19T09:27:34;97869.41;;;23.12;61.79
56414;BME280;42318;48.452;19.526;2023-09-19T09:30:36;97872.97;;;23.12;61.60
56414;BME280;42318;48.452;19.526;2023-09-19T09:33:37;97877.59;;;23.12;61.46
56414;BME280;42318;48.452;19.526;2023-09-19T09:36:39;97878.19;;;23.09;61.77
56414;BME280;42318;48.452;19.526;2023-09-19T09:39:49;97880.34;;;23.12;61.57
56414;BME280;42318;48.452;19.526;2023-09-19T09:42:51;97881.44;;;23.11;61.55
56414;BME280;42318;48.452;19.526;2023-09-19T09:46:10;97889.66;;;23.11;61.35
56414;BME280;42318;48.452;19.526;2023-09-19T09:49:31;97885.56;;;23.08;61.30
56414;BME280;42318;48.452;19.526;2023-09-19T09:52:44;97896.22;;;23.10;61.40
56414;BME280;42318;48.452;19.526;2023-09-19T09:59:02;97906.63;;;23.08;60.89
56414;BME280;42318;48.452;19.526;2023-09-19T10:02:03;97914.53;;;23.09;61.07
56414;BME280;42318;48.452;19.526;2023-09-19T10:08:22;97915.41;;;23.05;61.11
56414;BME280;42318;48.452;19.526;2023-09-19T10:11:23;97921.16;;;23.03;61.54
56414;BME280;42318;48.452;19.526;2023-09-19T10:14:36;97913.78;;;23.04;61.13
56414;BME280;42318;48.452;19.526;2023-09-19T10:17:42;97921.69;;;23.05;61.21
56414;BME280;42318;48.452;19.526;2023-09-19T10:20:47;97919.75;;;23.06;61.17
56414;BME280;42318;48.452;19.526;2023-09-19T10:23:51;97922.50;;;23.06;61.23
56414;BME280;42318;48.452;19.526;2023-09-19T10:26:57;97921.44;;;23.02;61.52
56414;BME280;42318;48.452;19.526;2023-09-19T10:29:59;97919.81;;;23.01;61.10
56414;BME280;42318;48.452;19.526;2023-09-19T10:33:02;97929.59;;;23.07;61.28
56414;BME280;42318;48.452;19.526;2023-09-19T10:36:05;97921.69;;;23.05;60.99
56414;BME280;42318;48.452;19.526;2023-09-19T10:39:06;97922.50;;;23.06;61.35
56414;BME280;42318;48.452;19.526;2023-09-19T10:42:11;97914.34;;;23.01;60.93
56414;BME280;42318;48.452;19.526;2023-09-19T10:45:17;97922.50;;;23.06;60.88
56414;BME280;42318;48.452;19.526;2023-09-19T10:48:20;97915.41;;;23.05;60.87
56414;BME280;42318;48.452;19.526;2023-09-19T10:51:29;97905.03;;;23.02;60.84
56414;BME280;42318;48.452;19.526;2023-09-19T10:54:34;97908.00;;;23.05;60.82
56414;BME280;42318;48.452;19.526;2023-09-19T10:57:37;97906.91;;;23.06;61.17
56414;BME280;42318;48.452;19.526;2023-09-19T11:00:57;97905.81;;;23.07;61.23
56414;BME280;42318;48.452;19.526;2023-09-19T11:04:25;97910.97;;;23.09;61.35
56414;BME280;42318;48.452;19.526;2023-09-19T11:07:26;97895.97;;;23.06;61.51
56414;BME280;42318;48.452;19.526;2023-09-19T11:10:49;97900.34;;;23.07;61.66
56414;BME280;42318;48.452;19.526;2023-09-19T11:20:22;97888.06;;;23.05;61.83
56414;BME280;42318;48.452;19.526;2023-09-19T11:23:23;97901.97;;;23.08;61.83
56414;BME280;42318;48.452;19.526;2023-09-19T11:26:42;97907.13;;;23.10;62.26
56414;BME280;42318;48.452;19.526;2023-09-19T11:30:27;97903.31;;;23.11;61.77
56414;BME280;42318;48.452;19.526;2023-09-19T11:33:29;97904.69;;;23.08;62.00
56414;BME280;42318;48.452;19.526;2023-09-19T11:36:41;97896.50;;;23.08;62.06
56414;BME280;42318;48.452;19.526;2023-09-19T11:40:06;97907.66;;;23.12;62.32
56414;BME280;42318;48.452;19.526;2023-09-19T11:43:30;97901.69;;;23.10;62.27
56414;BME280;42318;48.452;19.526;2023-09-19T11:46:53;97914.75;;;23.13;62.74
56414;BME280;42318;48.452;19.526;2023-09-19T11:49:54;97915.28;;;23.15;63.00
56414;BME280;42318;48.452;19.526;2023-09-19T11:52:54;97917.72;;;23.16;63.41
56414;BME280;42318;48.452;19.526;2023-09-19T11:55:56;97915.00;;;23.16;62.62
56414;BME280;42318;48.452;19.526;2023-09-19T11:58:57;97916.34;;;23.19;62.80
56414;BME280;42318;48.452;19.526;2023-09-19T12:02:03;97905.97;;;23.16;62.60
56414;BME280;42318;48.452;19.526;2023-09-19T12:05:05;97895.91;;;23.11;62.60
56414;BME280;42318;48.452;19.526;2023-09-19T12:08:09;97892.97;;;23.08;62.21
56414;BME280;42318;48.452;19.526;2023-09-19T12:11:14;97918.88;;;23.10;62.28
56414;BME280;42318;48.452;19.526;2023-09-19T12:14:23;97914.81;;;23.08;62.10
56414;BME280;42318;48.452;19.526;2023-09-19T12:17:38;97918.88;;;23.10;61.84
56414;BME280;42318;48.452;19.526;2023-09-19T12:20:45;97931.22;;;23.08;61.96
56414;BME280;42318;48.452;19.526;2023-09-19T12:24:17;97944.59;;;23.09;61.64
56414;BME280;42318;48.452;19.526;2023-09-19T12:27:19;97950.06;;;23.09;61.66
56414;BME280;42318;48.452;19.526;2023-09-19T12:30:27;97942.66;;;23.10;61.43
56414;BME280;42318;48.452;19.526;2023-09-19T12:33:28;97950.06;;;23.09;61.36
56414;BME280;42318;48.452;19.526;2023-09-19T12:36:28;97945.41;;;23.10;61.57
56414;BME280;42318;48.452;19.526;2023-09-19T12:39:30;97940.50;;;23.07;61.53
56414;BME280;42318;48.452;19.526;2023-09-19T12:42:31;97948.66;;;23.12;61.91
56414;BME280;42318;48.452;19.526;2023-09-19T12:45:35;97953.59;;;23.10;61.84
56414;BME280;42318;48.452;19.526;2023-09-19T12:48:37;97953.88;;;23.08;61.73
56414;BME280;42318;48.452;19.526;2023-09-19T12:51:46;97963.44;;;23.11;62.11
56414;BME280;42318;48.452;19.526;2023-09-19T12:54:47;97963.44;;;23.11;61.76
56414;BME280;42318;48.452;19.526;2023-09-19T13:01:14;97966.44;;;23.09;61.66
56414;BME280;42318;48.452;19.526;2023-09-19T13:04:20;97967.03;;;23.06;61.78
56414;BME280;42318;48.452;19.526;2023-09-19T13:07:40;97974.34;;;23.11;61.81
56414;BME280;42318;48.452;19.526;2023-09-19T13:11:22;97972.72;;;23.10;61.80
56414;BME280;42318;48.452;19.526;2023-09-19T13:14:24;97979.28;;;23.09;61.27
56414;BME280;42318;48.452;19.526;2023-09-19T13:17:45;97973.31;;;23.07;61.53
56414;BME280;42318;48.452;19.526;2023-09-19T13:21:14;97976.28;;;23.10;61.63
56414;BME280;42318;48.452;19.526;2023-09-19T13:24:25;97987.78;;;23.07;61.47
56414;BME280;42318;48.452;19.526;2023-09-19T13:27:29;97989.13;;;23.10;61.58
56414;BME280;42318;48.452;19.526;2023-09-19T13:30:30;97990.22;;;23.09;61.67
56414;BME280;42318;48.452;19.526;2023-09-19T13:33:32;97992.44;;;23.07;61.36
56414;BME280;42318;48.452;19.526;2023-09-19T13:36:33;97992.97;;;23.09;61.28
56414;BME280;42318;48.452;19.526;2023-09-19T13:39:33;97987.78;;;23.07;61.49
56414;BME280;42318;48.452;19.526;2023-09-19T13:42:35;97991.31;;;23.08;61.22
56414;BME280;42318;48.452;19.526;2023-09-19T13:45:36;97982.31;;;23.07;61.18
56414;BME280;42318;48.452;19.526;2023-09-19T13:48:37;97991.63;;;23.06;61.33
56414;BME280;42318;48.452;19.526;2023-09-19T13:51:38;97988.06;;;23.06;61.32
56414;BME280;42318;48.452;19.526;2023-09-19T13:54:40;97996.56;;;23.04;61.45
56414;BME280;42318;48.452;19.526;2023-09-19T13:57:41;97998.47;;;23.04;61.31
56414;BME280;42318;48.452;19.526;2023-09-19T14:00:43;98000.09;;;23.05;61.24
56414;BME280;42318;48.452;19.526;2023-09-19T14:03:44;98000.69;;;23.02;61.52
56414;BME280;42318;48.452;19.526;2023-09-19T14:06:47;98015.38;;;23.06;61.56
56414;BME280;42318;48.452;19.526;2023-09-19T14:09:47;98019.75;;;23.07;61.35
56414;BME280;42318;48.452;19.526;2023-09-19T14:12:48;98021.66;;;23.06;61.33
56414;BME280;42318;48.452;19.526;2023-09-19T14:15:49;98021.66;;;23.06;61.26
56414;BME280;42318;48.452;19.526;2023-09-19T14:18:49;98021.72;;;23.01;61.59
56414;BME280;42318;48.452;19.526;2023-09-19T14:21:50;98024.41;;;23.06;60.98
56414;BME280;42318;48.452;19.526;2023-09-19T14:24:51;98038.06;;;23.06;61.41
56414;BME280;42318;48.452;19.526;2023-09-19T14:27:53;98039.16;;;23.05;61.38
56414;BME280;42318;48.452;19.526;2023-09-19T14:30:53;98037.25;;;23.06;61.19
56414;BME280;42318;48.452;19.526;2023-09-19T14:33:55;98044.34;;;23.07;61.24
56414;BME280;42318;48.452;19.526;2023-09-19T14:36:57;98050.09;;;23.05;61.25
56414;BME280;42318;48.452;19.526;2023-09-19T14:39:57;98061.84;;;23.06;61.17
56414;BME280;42318;48.452;19.526;2023-09-19T14:42:58;98044.91;;;23.04;61.08
56414;BME280;42318;48.452;19.526;2023-09-19T14:46:05;98053.94;;;23.04;61.14
56414;BME280;42318;48.452;19.526;2023-09-19T14:49:11;98067.59;;;23.04;61.34
56414;BME280;42318;48.452;19.526;2023-09-19T14:52:11;98062.69;;;23.01;61.15
56414;BME280;42318;48.452;19.526;2023-09-19T14:55:16;98074.97;;;23.04;61.10
56414;BME280;42318;48.452;19.526;2023-09-19T14:58:16;98058.88;;;22.97;61.27
56414;BME280;42318;48.452;19.526;2023-09-19T15:01:17;98073.34;;;23.03;60.97
56414;BME280;42318;48.452;19.526;2023-09-19T15:04:18;98075.25;;;23.02;61.06
56414;BME280;42318;48.452;19.526;2023-09-19T15:07:18;98076.06;;;23.03;60.87
56414;BME280;42318;48.452;19.526;2023-09-19T15:10:19;98070.63;;;23.03;61.02
56414;BME280;42318;48.452;19.526;2023-09-19T15:13:21;98072.25;;;23.04;61.03
56414;BME280;42318;48.452;19.526;2023-09-19T15:16:21;98064.34;;;23.02;61.15
56414;BME280;42318;48.452;19.526;2023-09-19T15:19:22;98068.97;;;23.02;61.22
56414;BME280;42318;48.452;19.526;2023-09-19T15:22:23;98071.72;;;23.02;60.73
56414;BME280;42318;48.452;19.526;2023-09-19T15:25:25;98068.97;;;23.02;61.17
56414;BME280;42318;48.452;19.526;2023-09-19T15:28:25;98068.16;;;23.01;60.99
56414;BME280;42318;48.452;19.526;2023-09-19T15:31:26;98069.28;;;23.00;61.10
56414;BME280;42318;48.452;19.526;2023-09-19T15:34:27;98063.53;;;22.97;60.95
56414;BME280;42318;48.452;19.526;2023-09-19T15:37:29;98071.19;;;23.00;60.96
56414;BME280;42318;48.452;19.526;2023-09-19T15:40:29;98070.63;;;22.98;61.16
56414;BME280;42318;48.452;19.526;2023-09-19T15:43:30;98073.34;;;22.98;60.85
56414;BME280;42318;48.452;19.526;2023-09-19T15:46:31;98073.91;;;23.00;60.88
56414;BME280;42318;48.452;19.526;2023-09-19T15:49:35;98078.81;;;22.98;61.24
56414;BME280;42318;48.452;19.526;2023-09-19T15:52:35;98067.41;;;22.91;61.05
56414;BME280;42318;48.452;19.526;2023-09-19T15:55:39;98074.47;;;22.97;60.98
56414;BME280;42318;48.452;19.526;2023-09-19T15:58:47;98085.38;;;22.97;60.98
56414;BME280;42318;48.452;19.526;2023-09-19T16:01:48;98086.50;;;22.96;60.84
56414;BME280;42318;48.452;19.526;2023-09-19T16:04:50;98081.84;;;22.96;60.65
56414;BME280;42318;48.452;19.526;2023-09-19T16:07:51;98102.88;;;22.96;60.78
56414;BME280;42318;48.452;19.526;2023-09-19T16:10:54;98090.31;;;22.95;60.66
56414;BME280;42318;48.452;19.526;2023-09-19T16:13:55;98082.97;;;22.90;60.96
56414;BME280;42318;48.452;19.526;2023-09-19T16:16:56;98094.69;;;22.96;61.16
56414;BME280;42318;48.452;19.526;2023-09-19T16:19:58;98094.16;;;22.94;60.84
56414;BME280;42318;48.452;19.526;2023-09-19T16:22:59;98097.69;;;22.94;60.98
56414;BME280;42318;48.452;19.526;2023-09-19T16:26:07;98087.63;;;22.90;61.06
56414;BME280;42318;48.452;19.526;2023-09-19T16:29:13;98096.06;;;22.93;60.85
56414;BME280;42318;48.452;19.526;2023-09-19T16:32:14;98102.34;;;22.94;60.85